sensor_id;sensor_type;location;lat;lon;timestamp;P1;durP1;ratioP1;P2;durP2;ratioP2
32780;SDS011;19136;47.032;15.502;2024-01-15T00:02:17;136.98;;;49.15;;
32780;SDS011;19136;47.032;15.502;2024-01-15T00:04:45;118.43;;;44.50;;
32780;SDS011;19136;47.032;15.502;2024-01-15T00:07:14;128.38;;;47.40;;
32780;SDS011;19136;47.032;15.502;2024-01-15T00:09:40;135.63;;;47.40;;
32780;SDS011;19136;47.032;15.502;2024-01-15T00:12:05;129.35;;;46.28;;
32780;SDS011;19136;47.032;15.502;2024-01-15T00:14:31;130.50;;;46.90;;
32780;SDS011;19136;47.032;15.502;2024-01-15T00:16:56;130.27;;;47.22;;
32780;SDS011;19136;47.032;15.502;2024-01-15T00:19:22;128.55;;;47.30;;
32780;SDS011;19136;47.032;15.502;2024-01-15T00:21:48;130.93;;;44.90;;
32780;SDS011;19136;47.032;15.502;2024-01-15T00:24:13;136.40;;;49.00;;
32780;SDS011;19136;47.032;15.502;2024-01-15T00:26:39;130.80;;;47.92;;
32780;SDS011;19136;47.032;15.502;2024-01-15T00:29:08;130.85;;;46.42;;
32780;SDS011;19136;47.032;15.502;2024-01-15T00:31:34;134.93;;;48.88;;
32780;SDS011;19136;47.032;15.502;2024-01-15T00:34:00;151.45;;;52.38;;
32780;SDS011;19136;47.032;15.502;2024-01-15T00:36:25;134.70;;;48.30;;
32780;SDS011;19136;47.032;15.502;2024-01-15T00:38:51;146.88;;;48.38;;
32780;SDS011;19136;47.032;15.502;2024-01-15T00:41:17;134.82;;;48.38;;
32780;SDS011;19136;47.032;15.502;2024-01-15T00:43:44;128.45;;;50.20;;
32780;SDS011;19136;47.032;15.502;2024-01-15T00:46:14;136.25;;;50.10;;
32780;SDS011;19136;47.032;15.502;2024-01-15T00:48:43;136.90;;;49.60;;
32780;SDS011;19136;47.032;15.502;2024-01-15T00:51:09;139.90;;;47.72;;
32780;SDS011;19136;47.032;15.502;2024-01-15T00:53:34;136.65;;;49.55;;
32780;SDS011;19136;47.032;15.502;2024-01-15T00:56:00;144.27;;;49.20;;
32780;SDS011;19136;47.032;15.502;2024-01-15T00:58:28;148.02;;;52.25;;
32780;SDS011;19136;47.032;15.502;2024-01-15T01:00:54;135.00;;;49.70;;
32780;SDS011;19136;47.032;15.502;2024-01-15T01:03:21;150.15;;;52.13;;
32780;SDS011;19136;47.032;15.502;2024-01-15T01:05:50;138.23;;;50.08;;
32780;SDS011;19136;47.032;15.502;2024-01-15T01:08:15;152.02;;;51.70;;
32780;SDS011;19136;47.032;15.502;2024-01-15T01:10:41;151.60;;;51.63;;
32780;SDS011;19136;47.032;15.502;2024-01-15T01:13:10;129.98;;;49.10;;
32780;SDS011;19136;47.032;15.502;2024-01-15T01:15:35;155.20;;;50.63;;
32780;SDS011;19136;47.032;15.502;2024-01-15T01:18:01;135.48;;;49.20;;
32780;SDS011;19136;47.032;15.502;2024-01-15T01:20:26;136.70;;;47.72;;
32780;SDS011;19136;47.032;15.502;2024-01-15T01:22:52;134.00;;;48.35;;
32780;SDS011;19136;47.032;15.502;2024-01-15T01:25:17;139.85;;;48.53;;
32780;SDS011;19136;47.032;15.502;2024-01-15T01:27:43;129.82;;;45.78;;
32780;SDS011;19136;47.032;15.502;2024-01-15T01:30:08;136.70;;;45.90;;
32780;SDS011;19136;47.032;15.502;2024-01-15T01:32:34;145.60;;;50.65;;
32780;SDS011;19136;47.032;15.502;2024-01-15T01:35:03;137.05;;;49.13;;
32780;SDS011;19136;47.032;15.502;2024-01-15T01:37:29;151.77;;;50.55;;
32780;SDS011;19136;47.032;15.502;2024-01-15T01:39:54;169.23;;;54.25;;
32780;SDS011;19136;47.032;15.502;2024-01-15T01:42:20;146.23;;;51.10;;
32780;SDS011;19136;47.032;15.502;2024-01-15T01:44:45;144.52;;;47.65;;
32780;SDS011;19136;47.032;15.502;2024-01-15T01:47:11;131.30;;;47.15;;
32780;SDS011;19136;47.032;15.502;2024-01-15T01:49:37;152.43;;;51.67;;
32780;SDS011;19136;47.032;15.502;2024-01-15T01:52:04;153.88;;;52.20;;
32780;SDS011;19136;47.032;15.502;2024-01-15T01:54:31;145.25;;;50.85;;
32780;SDS011;19136;47.032;15.502;2024-01-15T01:57:00;147.07;;;50.53;;
32780;SDS011;19136;47.032;15.502;2024-01-15T01:59:27;204.23;;;58.72;;
32780;SDS011;19136;47.032;15.502;2024-01-15T02:01:54;166.68;;;55.30;;
32780;SDS011;19136;47.032;15.502;2024-01-15T02:04:21;156.70;;;50.88;;
32780;SDS011;19136;47.032;15.502;2024-01-15T02:06:47;158.82;;;51.90;;
32780;SDS011;19136;47.032;15.502;2024-01-15T02:09:13;158.82;;;51.47;;
32780;SDS011;19136;47.032;15.502;2024-01-15T02:11:40;160.68;;;52.58;;
32780;SDS011;19136;47.032;15.502;2024-01-15T02:14:09;145.55;;;52.20;;
32780;SDS011;19136;47.032;15.502;2024-01-15T02:16:35;150.63;;;51.17;;
32780;SDS011;19136;47.032;15.502;2024-01-15T02:19:01;151.65;;;51.83;;
32780;SDS011;19136;47.032;15.502;2024-01-15T02:21:26;160.50;;;53.00;;
32780;SDS011;19136;47.032;15.502;2024-01-15T02:23:57;147.40;;;50.08;;
32780;SDS011;19136;47.032;15.502;2024-01-15T02:26:26;176.55;;;54.17;;
32780;SDS011;19136;47.032;15.502;2024-01-15T02:28:52;148.45;;;48.83;;
32780;SDS011;19136;47.032;15.502;2024-01-15T02:31:17;139.45;;;47.05;;
32780;SDS011;19136;47.032;15.502;2024-01-15T02:33:46;144.95;;;49.47;;
32780;SDS011;19136;47.032;15.502;2024-01-15T02:36:11;132.85;;;47.38;;
32780;SDS011;19136;47.032;15.502;2024-01-15T02:38:37;135.10;;;47.45;;
32780;SDS011;19136;47.032;15.502;2024-01-15T02:41:02;134.52;;;47.63;;
32780;SDS011;19136;47.032;15.502;2024-01-15T02:43:28;130.48;;;45.90;;
32780;SDS011;19136;47.032;15.502;2024-01-15T02:45:53;142.38;;;48.25;;
32780;SDS011;19136;47.032;15.502;2024-01-15T02:48:19;135.52;;;45.13;;
32780;SDS011;19136;47.032;15.502;2024-01-15T02:50:44;141.60;;;50.17;;
32780;SDS011;19136;47.032;15.502;2024-01-15T02:53:13;145.55;;;47.95;;
32780;SDS011;19136;47.032;15.502;2024-01-15T02:55:39;130.57;;;45.35;;
32780;SDS011;19136;47.032;15.502;2024-01-15T02:58:04;130.60;;;48.15;;
32780;SDS011;19136;47.032;15.502;2024-01-15T03:00:30;126.78;;;46.53;;
32780;SDS011;19136;47.032;15.502;2024-01-15T03:02:55;127.55;;;43.75;;
32780;SDS011;19136;47.032;15.502;2024-01-15T03:05:21;131.15;;;45.33;;
32780;SDS011;19136;47.032;15.502;2024-01-15T03:07:46;134.02;;;47.22;;
32780;SDS011;19136;47.032;15.502;2024-01-15T03:10:12;125.13;;;45.33;;
32780;SDS011;19136;47.032;15.502;2024-01-15T03:12:37;135.10;;;42.28;;
32780;SDS011;19136;47.032;15.502;2024-01-15T03:15:03;143.40;;;44.67;;
32780;SDS011;19136;47.032;15.502;2024-01-15T03:17:28;123.75;;;42.45;;
32780;SDS011;19136;47.032;15.502;2024-01-15T03:19:55;118.25;;;44.45;;
32780;SDS011;19136;47.032;15.502;2024-01-15T03:22:21;116.85;;;41.15;;
32780;SDS011;19136;47.032;15.502;2024-01-15T03:24:46;112.50;;;40.00;;
32780;SDS011;19136;47.032;15.502;2024-01-15T03:27:12;124.32;;;41.78;;
32780;SDS011;19136;47.032;15.502;2024-01-15T03:29:37;116.68;;;41.88;;
32780;SDS011;19136;47.032;15.502;2024-01-15T03:32:03;117.72;;;41.53;;
32780;SDS011;19136;47.032;15.502;2024-01-15T03:34:30;108.20;;;40.50;;
32780;SDS011;19136;47.032;15.502;2024-01-15T03:36:55;117.07;;;44.03;;
32780;SDS011;19136;47.032;15.502;2024-01-15T03:39:21;111.13;;;41.70;;
32780;SDS011;19136;47.032;15.502;2024-01-15T03:41:46;114.45;;;40.08;;
32780;SDS011;19136;47.032;15.502;2024-01-15T03:44:12;113.22;;;41.97;;
32780;SDS011;19136;47.032;15.502;2024-01-15T03:46:37;118.50;;;40.83;;
32780;SDS011;19136;47.032;15.502;2024-01-15T03:49:03;111.03;;;42.17;;
32780;SDS011;19136;47.032;15.502;2024-01-15T03:51:29;121.60;;;42.22;;
32780;SDS011;19136;47.032;15.502;2024-01-15T03:53:55;110.82;;;39.40;;
32780;SDS011;19136;47.032;15.502;2024-01-15T03:56:21;122.60;;;44.67;;
32780;SDS011;19136;47.032;15.502;2024-01-15T03:58:46;106.05;;;39.88;;
32780;SDS011;19136;47.032;15.502;2024-01-15T04:01:12;111.65;;;41.38;;
32780;SDS011;19136;47.032;15.502;2024-01-15T04:03:37;109.78;;;41.63;;
32780;SDS011;19136;47.032;15.502;2024-01-15T04:06:03;111.35;;;42.88;;
32780;SDS011;19136;47.032;15.502;2024-01-15T04:08:29;102.10;;;39.38;;
32780;SDS011;19136;47.032;15.502;2024-01-15T04:10:56;123.97;;;43.75;;
32780;SDS011;19136;47.032;15.502;2024-01-15T04:13:21;113.10;;;42.67;;
32780;SDS011;19136;47.032;15.502;2024-01-15T04:15:47;131.15;;;43.83;;
32780;SDS011;19136;47.032;15.502;2024-01-15T04:18:12;125.78;;;44.33;;
32780;SDS011;19136;47.032;15.502;2024-01-15T04:20:38;132.25;;;42.75;;
32780;SDS011;19136;47.032;15.502;2024-01-15T04:23:03;141.05;;;46.72;;
32780;SDS011;19136;47.032;15.502;2024-01-15T04:25:32;149.30;;;47.13;;
32780;SDS011;19136;47.032;15.502;2024-01-15T04:27:57;154.50;;;48.55;;
32780;SDS011;19136;47.032;15.502;2024-01-15T04:30:23;145.02;;;45.33;;
32780;SDS011;19136;47.032;15.502;2024-01-15T04:32:48;149.55;;;47.13;;
32780;SDS011;19136;47.032;15.502;2024-01-15T04:35:14;132.48;;;44.28;;
32780;SDS011;19136;47.032;15.502;2024-01-15T04:37:39;153.48;;;47.30;;
32780;SDS011;19136;47.032;15.502;2024-01-15T04:40:05;144.45;;;47.63;;
32780;SDS011;19136;47.032;15.502;2024-01-15T04:42:31;150.35;;;47.58;;
32780;SDS011;19136;47.032;15.502;2024-01-15T04:44:59;136.27;;;45.10;;
32780;SDS011;19136;47.032;15.502;2024-01-15T04:47:25;155.75;;;48.85;;
32780;SDS011;19136;47.032;15.502;2024-01-15T04:49:50;150.18;;;48.50;;
32780;SDS011;19136;47.032;15.502;2024-01-15T04:52:16;152.95;;;49.15;;
32780;SDS011;19136;47.032;15.502;2024-01-15T04:54:41;145.30;;;48.25;;
32780;SDS011;19136;47.032;15.502;2024-01-15T04:57:07;140.68;;;46.50;;
32780;SDS011;19136;47.032;15.502;2024-01-15T04:59:33;134.75;;;46.65;;
32780;SDS011;19136;47.032;15.502;2024-01-15T05:01:58;156.43;;;50.58;;
32780;SDS011;19136;47.032;15.502;2024-01-15T05:04:24;145.07;;;48.80;;
32780;SDS011;19136;47.032;15.502;2024-01-15T05:06:55;156.10;;;49.75;;
32780;SDS011;19136;47.032;15.502;2024-01-15T05:09:20;149.02;;;49.53;;
32780;SDS011;19136;47.032;15.502;2024-01-15T05:11:49;140.90;;;45.20;;
32780;SDS011;19136;47.032;15.502;2024-01-15T05:14:14;148.52;;;48.97;;
32780;SDS011;19136;47.032;15.502;2024-01-15T05:16:46;150.85;;;47.55;;
32780;SDS011;19136;47.032;15.502;2024-01-15T05:19:12;139.25;;;47.60;;
32780;SDS011;19136;47.032;15.502;2024-01-15T05:21:39;139.68;;;45.92;;
32780;SDS011;19136;47.032;15.502;2024-01-15T05:24:04;143.15;;;46.80;;
32780;SDS011;19136;47.032;15.502;2024-01-15T05:26:33;139.10;;;46.22;;
32780;SDS011;19136;47.032;15.502;2024-01-15T05:28:59;136.38;;;47.28;;
32780;SDS011;19136;47.032;15.502;2024-01-15T05:31:28;128.57;;;45.90;;
32780;SDS011;19136;47.032;15.502;2024-01-15T05:33:53;133.52;;;46.67;;
32780;SDS011;19136;47.032;15.502;2024-01-15T05:36:25;139.80;;;45.08;;
32780;SDS011;19136;47.032;15.502;2024-01-15T05:38:50;138.40;;;45.22;;
32780;SDS011;19136;47.032;15.502;2024-01-15T05:41:19;134.95;;;44.75;;
32780;SDS011;19136;47.032;15.502;2024-01-15T05:43:44;127.05;;;43.50;;
32780;SDS011;19136;47.032;15.502;2024-01-15T05:46:10;127.25;;;43.47;;
32780;SDS011;19136;47.032;15.502;2024-01-15T05:48:35;127.30;;;43.38;;
32780;SDS011;19136;47.032;15.502;2024-01-15T05:51:01;122.60;;;42.88;;
32780;SDS011;19136;47.032;15.502;2024-01-15T05:53:27;116.38;;;39.25;;
32780;SDS011;19136;47.032;15.502;2024-01-15T05:55:52;104.35;;;38.20;;
32780;SDS011;19136;47.032;15.502;2024-01-15T05:58:19;110.90;;;41.35;;
32780;SDS011;19136;47.032;15.502;2024-01-15T06:00:45;109.35;;;41.20;;
32780;SDS011;19136;47.032;15.502;2024-01-15T06:03:14;107.43;;;40.22;;
32780;SDS011;19136;47.032;15.502;2024-01-15T06:05:40;119.60;;;40.80;;
32780;SDS011;19136;47.032;15.502;2024-01-15T06:08:05;110.53;;;42.05;;
32780;SDS011;19136;47.032;15.502;2024-01-15T06:10:31;113.22;;;40.25;;
32780;SDS011;19136;47.032;15.502;2024-01-15T06:12:56;105.35;;;38.70;;
32780;SDS011;19136;47.032;15.502;2024-01-15T06:15:21;107.82;;;38.92;;
32780;SDS011;19136;47.032;15.502;2024-01-15T06:17:47;114.95;;;41.53;;
32780;SDS011;19136;47.032;15.502;2024-01-15T06:20:12;101.60;;;37.50;;
32780;SDS011;19136;47.032;15.502;2024-01-15T06:22:38;101.03;;;37.55;;
32780;SDS011;19136;47.032;15.502;2024-01-15T06:25:06;99.97;;;37.80;;
32780;SDS011;19136;47.032;15.502;2024-01-15T06:27:32;103.03;;;36.47;;
32780;SDS011;19136;47.032;15.502;2024-01-15T06:29:57;107.28;;;36.58;;
32780;SDS011;19136;47.032;15.502;2024-01-15T06:32:23;100.30;;;37.22;;
32780;SDS011;19136;47.032;15.502;2024-01-15T06:34:48;93.47;;;36.78;;
32780;SDS011;19136;47.032;15.502;2024-01-15T06:37:16;96.25;;;35.55;;
32780;SDS011;19136;47.032;15.502;2024-01-15T06:39:44;93.53;;;35.95;;
32780;SDS011;19136;47.032;15.502;2024-01-15T06:42:09;86.35;;;33.28;;
32780;SDS011;19136;47.032;15.502;2024-01-15T06:44:35;105.93;;;37.08;;
32780;SDS011;19136;47.032;15.502;2024-01-15T06:47:00;100.43;;;37.20;;
32780;SDS011;19136;47.032;15.502;2024-01-15T06:49:30;97.63;;;35.55;;
32780;SDS011;19136;47.032;15.502;2024-01-15T06:51:57;109.85;;;37.22;;
32780;SDS011;19136;47.032;15.502;2024-01-15T06:54:22;91.60;;;36.30;;
32780;SDS011;19136;47.032;15.502;2024-01-15T06:56:50;109.15;;;39.30;;
32780;SDS011;19136;47.032;15.502;2024-01-15T06:59:15;118.63;;;39.55;;
32780;SDS011;19136;47.032;15.502;2024-01-15T07:01:41;114.35;;;43.60;;
32780;SDS011;19136;47.032;15.502;2024-01-15T07:04:06;109.63;;;41.40;;
32780;SDS011;19136;47.032;15.502;2024-01-15T07:06:36;107.13;;;39.10;;
32780;SDS011;19136;47.032;15.502;2024-01-15T07:09:02;113.90;;;40.67;;
32780;SDS011;19136;47.032;15.502;2024-01-15T07:11:27;107.97;;;38.03;;
32780;SDS011;19136;47.032;15.502;2024-01-15T07:13:55;107.20;;;38.53;;
32780;SDS011;19136;47.032;15.502;2024-01-15T07:16:21;118.00;;;39.67;;
32780;SDS011;19136;47.032;15.502;2024-01-15T07:18:47;111.97;;;40.50;;
32780;SDS011;19136;47.032;15.502;2024-01-15T07:21:12;120.88;;;41.75;;
32780;SDS011;19136;47.032;15.502;2024-01-15T07:23:38;112.28;;;39.38;;
32780;SDS011;19136;47.032;15.502;2024-01-15T07:26:04;109.63;;;40.75;;
32780;SDS011;19136;47.032;15.502;2024-01-15T07:28:30;114.00;;;38.83;;
32780;SDS011;19136;47.032;15.502;2024-01-15T07:30:57;108.68;;;38.83;;
32780;SDS011;19136;47.032;15.502;2024-01-15T07:33:22;106.85;;;38.85;;
32780;SDS011;19136;47.032;15.502;2024-01-15T07:35:48;123.97;;;41.70;;
32780;SDS011;19136;47.032;15.502;2024-01-15T07:38:13;115.78;;;41.15;;
32780;SDS011;19136;47.032;15.502;2024-01-15T07:40:39;121.97;;;41.33;;
32780;SDS011;19136;47.032;15.502;2024-01-15T07:43:05;104.82;;;38.72;;
32780;SDS011;19136;47.032;15.502;2024-01-15T07:45:33;104.18;;;38.78;;
32780;SDS011;19136;47.032;15.502;2024-01-15T07:47:58;107.75;;;37.25;;
32780;SDS011;19136;47.032;15.502;2024-01-15T07:50:24;98.07;;;38.00;;
32780;SDS011;19136;47.032;15.502;2024-01-15T07:52:49;93.35;;;34.40;;
32780;SDS011;19136;47.032;15.502;2024-01-15T07:55:15;101.93;;;38.80;;
32780;SDS011;19136;47.032;15.502;2024-01-15T07:57:40;96.35;;;35.80;;
32780;SDS011;19136;47.032;15.502;2024-01-15T08:00:06;90.60;;;33.75;;
32780;SDS011;19136;47.032;15.502;2024-01-15T08:02:32;126.30;;;43.28;;
32780;SDS011;19136;47.032;15.502;2024-01-15T08:04:57;150.45;;;52.00;;
32780;SDS011;19136;47.032;15.502;2024-01-15T08:07:27;132.75;;;47.90;;
32780;SDS011;19136;47.032;15.502;2024-01-15T08:09:53;119.05;;;44.83;;
32780;SDS011;19136;47.032;15.502;2024-01-15T08:12:19;99.57;;;38.25;;
32780;SDS011;19136;47.032;15.502;2024-01-15T08:14:44;91.82;;;36.25;;
32780;SDS011;19136;47.032;15.502;2024-01-15T08:17:10;96.18;;;36.45;;
32780;SDS011;19136;47.032;15.502;2024-01-15T08:19:36;79.38;;;33.10;;
32780;SDS011;19136;47.032;15.502;2024-01-15T08:22:01;70.35;;;29.95;;
32780;SDS011;19136;47.032;15.502;2024-01-15T08:24:30;75.85;;;29.95;;
32780;SDS011;19136;47.032;15.502;2024-01-15T08:26:57;76.95;;;29.35;;
32780;SDS011;19136;47.032;15.502;2024-01-15T08:29:22;64.53;;;26.95;;
32780;SDS011;19136;47.032;15.502;2024-01-15T08:31:49;65.05;;;28.88;;
32780;SDS011;19136;47.032;15.502;2024-01-15T08:34:18;66.45;;;27.27;;
32780;SDS011;19136;47.032;15.502;2024-01-15T08:36:44;61.97;;;26.10;;
32780;SDS011;19136;47.032;15.502;2024-01-15T08:39:10;62.13;;;26.25;;
32780;SDS011;19136;47.032;15.502;2024-01-15T08:41:35;61.85;;;27.42;;
32780;SDS011;19136;47.032;15.502;2024-01-15T08:44:01;58.05;;;25.10;;
32780;SDS011;19136;47.032;15.502;2024-01-15T08:46:28;58.13;;;22.10;;
32780;SDS011;19136;47.032;15.502;2024-01-15T08:48:53;50.38;;;21.98;;
32780;SDS011;19136;47.032;15.502;2024-01-15T08:51:19;50.00;;;22.35;;
32780;SDS011;19136;47.032;15.502;2024-01-15T08:53:45;51.15;;;21.25;;
32780;SDS011;19136;47.032;15.502;2024-01-15T08:56:10;51.28;;;20.00;;
32780;SDS011;19136;47.032;15.502;2024-01-15T08:58:36;43.35;;;19.80;;
32780;SDS011;19136;47.032;15.502;2024-01-15T09:01:02;42.45;;;19.38;;
32780;SDS011;19136;47.032;15.502;2024-01-15T09:03:27;46.58;;;20.98;;
32780;SDS011;19136;47.032;15.502;2024-01-15T09:05:53;44.60;;;20.00;;
32780;SDS011;19136;47.032;15.502;2024-01-15T09:08:18;39.80;;;18.17;;
32780;SDS011;19136;47.032;15.502;2024-01-15T09:10:44;45.95;;;21.60;;
32780;SDS011;19136;47.032;15.502;2024-01-15T09:13:14;45.90;;;21.67;;
32780;SDS011;19136;47.032;15.502;2024-01-15T09:15:40;67.95;;;29.48;;
32780;SDS011;19136;47.032;15.502;2024-01-15T09:18:07;64.25;;;28.90;;
32780;SDS011;19136;47.032;15.502;2024-01-15T09:20:33;68.97;;;30.30;;
32780;SDS011;19136;47.032;15.502;2024-01-15T09:22:58;69.90;;;31.98;;
32780;SDS011;19136;47.032;15.502;2024-01-15T09:25:25;64.25;;;27.63;;
32780;SDS011;19136;47.032;15.502;2024-01-15T09:27:51;63.83;;;28.08;;
32780;SDS011;19136;47.032;15.502;2024-01-15T09:30:17;55.40;;;26.48;;
32780;SDS011;19136;47.032;15.502;2024-01-15T09:32:42;58.65;;;27.02;;
32780;SDS011;19136;47.032;15.502;2024-01-15T09:35:08;58.60;;;27.48;;
32780;SDS011;19136;47.032;15.502;2024-01-15T09:37:34;65.78;;;29.08;;
32780;SDS011;19136;47.032;15.502;2024-01-15T09:40:00;67.18;;;31.38;;
32780;SDS011;19136;47.032;15.502;2024-01-15T09:42:25;65.40;;;31.60;;
32780;SDS011;19136;47.032;15.502;2024-01-15T09:44:51;67.70;;;31.23;;
32780;SDS011;19136;47.032;15.502;2024-01-15T09:47:17;63.25;;;30.88;;
32780;SDS011;19136;47.032;15.502;2024-01-15T09:49:43;70.70;;;32.70;;
32780;SDS011;19136;47.032;15.502;2024-01-15T09:52:08;69.78;;;33.55;;
32780;SDS011;19136;47.032;15.502;2024-01-15T09:54:35;72.55;;;34.00;;
32780;SDS011;19136;47.032;15.502;2024-01-15T09:57:01;65.95;;;33.33;;
32780;SDS011;19136;47.032;15.502;2024-01-15T09:59:28;69.22;;;33.60;;
32780;SDS011;19136;47.032;15.502;2024-01-15T10:01:57;66.38;;;33.88;;
32780;SDS011;19136;47.032;15.502;2024-01-15T10:04:24;71.68;;;34.00;;
32780;SDS011;19136;47.032;15.502;2024-01-15T10:06:50;68.55;;;33.08;;
32780;SDS011;19136;47.032;15.502;2024-01-15T10:09:17;64.15;;;32.08;;
32780;SDS011;19136;47.032;15.502;2024-01-15T10:11:46;67.70;;;33.78;;
32780;SDS011;19136;47.032;15.502;2024-01-15T10:14:12;65.25;;;31.98;;
32780;SDS011;19136;47.032;15.502;2024-01-15T10:16:39;74.22;;;33.22;;
32780;SDS011;19136;47.032;15.502;2024-01-15T10:19:08;66.40;;;31.77;;
32780;SDS011;19136;47.032;15.502;2024-01-15T10:21:34;69.68;;;32.00;;
32780;SDS011;19136;47.032;15.502;2024-01-15T10:24:00;78.35;;;31.15;;
32780;SDS011;19136;47.032;15.502;2024-01-15T10:26:26;56.50;;;28.48;;
32780;SDS011;19136;47.032;15.502;2024-01-15T10:28:51;62.80;;;29.70;;
32780;SDS011;19136;47.032;15.502;2024-01-15T10:31:20;54.88;;;28.88;;
32780;SDS011;19136;47.032;15.502;2024-01-15T10:33:47;51.40;;;26.42;;
32780;SDS011;19136;47.032;15.502;2024-01-15T10:36:13;54.13;;;26.58;;
32780;SDS011;19136;47.032;15.502;2024-01-15T10:38:43;53.22;;;25.10;;
32780;SDS011;19136;47.032;15.502;2024-01-15T10:41:20;53.58;;;25.00;;
32780;SDS011;19136;47.032;15.502;2024-01-15T10:43:52;48.35;;;24.73;;
32780;SDS011;19136;47.032;15.502;2024-01-15T10:48:52;46.75;;;24.33;;
32780;SDS011;19136;47.032;15.502;2024-01-15T10:51:20;55.75;;;24.92;;
32780;SDS011;19136;47.032;15.502;2024-01-15T10:53:50;54.33;;;26.45;;
32780;SDS011;19136;47.032;15.502;2024-01-15T10:56:22;54.08;;;26.52;;
32780;SDS011;19136;47.032;15.502;2024-01-15T10:58:59;46.03;;;23.15;;
32780;SDS011;19136;47.032;15.502;2024-01-15T11:01:35;51.63;;;24.10;;
32780;SDS011;19136;47.032;15.502;2024-01-15T11:04:03;47.83;;;22.67;;
32780;SDS011;19136;47.032;15.502;2024-01-15T11:06:51;57.83;;;22.27;;
32780;SDS011;19136;47.032;15.502;2024-01-15T11:09:22;40.33;;;19.83;;
32780;SDS011;19136;47.032;15.502;2024-01-15T11:11:51;35.47;;;18.17;;
32780;SDS011;19136;47.032;15.502;2024-01-15T11:14:38;41.03;;;18.27;;
32780;SDS011;19136;47.032;15.502;2024-01-15T11:17:08;39.83;;;20.85;;
32780;SDS011;19136;47.032;15.502;2024-01-15T11:19:48;40.83;;;18.58;;
32780;SDS011;19136;47.032;15.502;2024-01-15T11:24:58;38.25;;;16.80;;
32780;SDS011;19136;47.032;15.502;2024-01-15T11:28:01;35.80;;;16.75;;
32780;SDS011;19136;47.032;15.502;2024-01-15T11:30:24;31.38;;;14.65;;
32780;SDS011;19136;47.032;15.502;2024-01-15T11:32:50;28.15;;;14.43;;
32780;SDS011;19136;47.032;15.502;2024-01-15T11:35:16;32.70;;;14.38;;
32780;SDS011;19136;47.032;15.502;2024-01-15T11:40:19;33.33;;;16.88;;
32780;SDS011;19136;47.032;15.502;2024-01-15T11:42:46;33.10;;;15.45;;
32780;SDS011;19136;47.032;15.502;2024-01-15T11:45:13;33.50;;;13.95;;
32780;SDS011;19136;47.032;15.502;2024-01-15T11:50:06;22.50;;;12.00;;
32780;SDS011;19136;47.032;15.502;2024-01-15T11:52:37;25.33;;;12.35;;
32780;SDS011;19136;47.032;15.502;2024-01-15T11:55:14;23.27;;;11.57;;
32780;SDS011;19136;47.032;15.502;2024-01-15T11:57:46;24.50;;;11.57;;
32780;SDS011;19136;47.032;15.502;2024-01-15T12:00:13;23.27;;;10.65;;
32780;SDS011;19136;47.032;15.502;2024-01-15T12:02:41;24.83;;;11.30;;
32780;SDS011;19136;47.032;15.502;2024-01-15T12:05:07;21.58;;;11.00;;
32780;SDS011;19136;47.032;15.502;2024-01-15T12:07:33;22.63;;;10.65;;
32780;SDS011;19136;47.032;15.502;2024-01-15T12:09:59;22.95;;;10.82;;
32780;SDS011;19136;47.032;15.502;2024-01-15T12:12:27;28.20;;;12.82;;
32780;SDS011;19136;47.032;15.502;2024-01-15T12:14:57;25.10;;;11.70;;
32780;SDS011;19136;47.032;15.502;2024-01-15T12:17:25;21.42;;;10.43;;
32780;SDS011;19136;47.032;15.502;2024-01-15T12:20:14;24.85;;;10.70;;
32780;SDS011;19136;47.032;15.502;2024-01-15T12:23:01;25.60;;;10.18;;
32780;SDS011;19136;47.032;15.502;2024-01-15T12:25:31;28.17;;;11.10;;
32780;SDS011;19136;47.032;15.502;2024-01-15T12:27:58;20.65;;;10.52;;
32780;SDS011;19136;47.032;15.502;2024-01-15T12:30:25;22.25;;;10.20;;
32780;SDS011;19136;47.032;15.502;2024-01-15T12:33:06;27.67;;;10.93;;
32780;SDS011;19136;47.032;15.502;2024-01-15T12:35:52;25.05;;;10.82;;
32780;SDS011;19136;47.032;15.502;2024-01-15T12:38:19;27.75;;;12.18;;
32780;SDS011;19136;47.032;15.502;2024-01-15T12:40:46;23.15;;;11.73;;
32780;SDS011;19136;47.032;15.502;2024-01-15T12:43:23;26.38;;;12.48;;
32780;SDS011;19136;47.032;15.502;2024-01-15T12:46:04;25.38;;;12.23;;
32780;SDS011;19136;47.032;15.502;2024-01-15T12:48:34;25.00;;;12.60;;
32780;SDS011;19136;47.032;15.502;2024-01-15T12:51:14;31.00;;;14.50;;
32780;SDS011;19136;47.032;15.502;2024-01-15T12:53:52;31.67;;;15.70;;
32780;SDS011;19136;47.032;15.502;2024-01-15T12:56:25;35.03;;;15.07;;
32780;SDS011;19136;47.032;15.502;2024-01-15T12:58:55;31.23;;;15.68;;
32780;SDS011;19136;47.032;15.502;2024-01-15T13:01:29;27.90;;;14.50;;
32780;SDS011;19136;47.032;15.502;2024-01-15T13:03:58;31.10;;;14.95;;
32780;SDS011;19136;47.032;15.502;2024-01-15T13:06:32;26.90;;;13.30;;
32780;SDS011;19136;47.032;15.502;2024-01-15T13:09:03;22.85;;;12.43;;
32780;SDS011;19136;47.032;15.502;2024-01-15T13:11:41;27.80;;;11.60;;
32780;SDS011;19136;47.032;15.502;2024-01-15T13:14:16;24.00;;;11.30;;
32780;SDS011;19136;47.032;15.502;2024-01-15T13:16:55;26.60;;;11.82;;
32780;SDS011;19136;47.032;15.502;2024-01-15T13:19:31;25.20;;;12.18;;
32780;SDS011;19136;47.032;15.502;2024-01-15T13:22:04;24.85;;;12.15;;
32780;SDS011;19136;47.032;15.502;2024-01-15T13:24:37;27.30;;;12.65;;
32780;SDS011;19136;47.032;15.502;2024-01-15T13:27:24;24.77;;;12.27;;
32780;SDS011;19136;47.032;15.502;2024-01-15T13:30:18;26.33;;;12.40;;
32780;SDS011;19136;47.032;15.502;2024-01-15T13:32:51;24.23;;;11.55;;
32780;SDS011;19136;47.032;15.502;2024-01-15T13:35:31;23.90;;;11.00;;
32780;SDS011;19136;47.032;15.502;2024-01-15T13:38:12;22.27;;;12.10;;
32780;SDS011;19136;47.032;15.502;2024-01-15T13:40:44;28.98;;;11.13;;
32780;SDS011;19136;47.032;15.502;2024-01-15T13:43:27;18.35;;;9.13;;
32780;SDS011;19136;47.032;15.502;2024-01-15T13:46:02;26.77;;;11.05;;
32780;SDS011;19136;47.032;15.502;2024-01-15T13:48:48;28.42;;;10.73;;
32780;SDS011;19136;47.032;15.502;2024-01-15T13:51:14;23.23;;;10.63;;
32780;SDS011;19136;47.032;15.502;2024-01-15T13:53:46;18.27;;;8.48;;
32780;SDS011;19136;47.032;15.502;2024-01-15T13:56:14;19.33;;;9.63;;
32780;SDS011;19136;47.032;15.502;2024-01-15T13:58:44;20.08;;;10.45;;
32780;SDS011;19136;47.032;15.502;2024-01-15T14:01:25;20.80;;;10.45;;
32780;SDS011;19136;47.032;15.502;2024-01-15T14:03:54;21.65;;;9.43;;
32780;SDS011;19136;47.032;15.502;2024-01-15T14:06:42;16.80;;;7.05;;
32780;SDS011;19136;47.032;15.502;2024-01-15T14:09:10;19.80;;;9.10;;
32780;SDS011;19136;47.032;15.502;2024-01-15T14:11:41;21.05;;;9.23;;
32780;SDS011;19136;47.032;15.502;2024-01-15T14:14:12;21.80;;;9.23;;
32780;SDS011;19136;47.032;15.502;2024-01-15T14:16:50;21.13;;;9.05;;
32780;SDS011;19136;47.032;15.502;2024-01-15T14:19:28;22.58;;;9.90;;